F/V Vent Du Large — FVHN — position and weather

sailwx.info

Track history (hours):
 
Tides and Currents Weather Stations Pressure Air Temp Water Temp Dewpoint Dewpoint Depression Visibility Wind Speed Wind Dir Waves Ship Positions

F/V Vent Du Large

Last reported at 2018-Apr-24 07:03 UTC. Time now 2018-Apr-24 16:42 UTC.
Position N 45°53' W 001°53'.

Length 14 m.

Type: Fishing. MMSI: 227582000.

Date/timePositionNaut miles runAvg speedWind from/ knotsBaromVisibWave heightAir tempDewpointWater temp
2018-Apr-24 07:03N 45°53' W 001°53'110.0
2018-Apr-24 06:57N 45°53' W 001°54'8 3.3
2018-Apr-24 04:37N 45°54' W 002°06'6 0.2
2018-Apr-23 04:20N 45°56' W 001°58'1 2.7
2018-Apr-23 04:00N 45°56' W 001°59'2 3.5
2018-Apr-23 03:30N 45°57' W 002°01'1 1.6
2018-Apr-23 02:58N 45°57' W 002°01'2 3.4
2018-Apr-23 02:28N 45°56' W 001°59'1 1.2
2018-Apr-23 01:31N 45°56' W 001°57'1 3.6
2018-Apr-23 01:20N 45°56' W 001°58'1 3.6
2018-Apr-23 00:59N 45°57' W 001°60'2 3.2
2018-Apr-23 00:30N 45°57' W 002°02'2 0.7
2018-Apr-22 21:51N 45°56' W 002°00'1 3.7
2018-Apr-22 21:28N 45°55' W 001°58'1 1.1
2018-Apr-22 20:51N 45°56' W 001°58'1 3.7
2018-Apr-22 20:29N 45°57' W 001°60'1 1.5
2018-Apr-22 19:47N 45°57' W 002°01'1 3.2
2018-Apr-22 19:30N 45°56' W 002°00'3 1.3
2018-Apr-22 17:33N 45°54' W 002°01'3 2.9
2018-Apr-22 16:30N 45°51' W 002°00'3 3.4
2018-Apr-22 15:41N 45°49' W 001°58'1 3.3
2018-Apr-22 15:30N 45°48' W 001°57'2 2.9
2018-Apr-22 14:49N 45°49' W 001°54'1 2.5
2018-Apr-22 14:29N 45°50' W 001°55'2 3.5
2018-Apr-22 14:00N 45°50' W 001°57'2 3.2
2018-Apr-22 13:30N 45°50' W 001°59'2 3.1
2018-Apr-22 13:00N 45°50' W 001°57'1 1.7
2018-Apr-22 12:31N 45°50' W 001°56'1 2.5
2018-Apr-22 12:01N 45°49' W 001°57'2 3.6
2018-Apr-22 11:30N 45°49' W 001°55'2 3.6
2018-Apr-22 11:00N 45°49' W 001°53'2 3.7
2018-Apr-22 10:30N 45°49' W 001°50'2 3.7
2018-Apr-22 10:00N 45°50' W 001°48'2 2.5
2018-Apr-22 09:20N 45°48' W 001°48'1 3.7
2018-Apr-22 08:57N 45°47' W 001°46'2 4.6
2018-Apr-22 08:30N 45°47' W 001°43'7 9.2
2018-Apr-22 07:47N 45°49' W 001°34'3 9.3
2018-Apr-22 07:29N 45°51' W 001°31'9 0.3
2018-Apr-21 04:54N 45°55' W 001°20'  
2018-Apr-18 07:07N 45°54' W 001°20'1 3.9
2018-Apr-18 06:52N 45°53' W 001°21'2 4.5
2018-Apr-18 06:30N 45°52' W 001°22'0 0.2
2018-Apr-18 05:55N 45°52' W 001°23'2 4.8
2018-Apr-18 05:30N 45°53' W 001°20'2 3.3
2018-Apr-18 04:59N 45°55' W 001°20'0 0.1
2018-Apr-18 03:28N 45°55' W 001°20'0 0.0
2018-Apr-18 02:58N 45°55' W 001°20'1 2.7
2018-Apr-18 02:30N 45°54' W 001°20'5 9.3
2018-Apr-18 02:00N 45°51' W 001°26'510.0
2018-Apr-18 01:30N 45°49' W 001°32'47 2.2
2018-Apr-17 04:10N 45°33' W 002°35'1 3.6
2018-Apr-17 03:50N 45°34' W 002°36'2 3.4
2018-Apr-17 03:21N 45°35' W 002°39'2 2.5
2018-Apr-17 02:32N 45°33' W 002°36'2 2.7
2018-Apr-17 01:46N 45°32' W 002°34'8 3.4
2018-Apr-16 23:18N 45°37' W 002°43'22 0.5
2018-Apr-14 21:50N 45°57' W 002°29'1 3.5
2018-Apr-14 21:30N 45°56' W 002°27'  
Track history (hours):
 
Tides and Currents Weather Stations Pressure Air Temp Water Temp Dewpoint Dewpoint Depression Visibility Wind Speed Wind Dir Waves Ship Positions

F/V Vent Du Large

Last reported at 2018-Apr-24 07:03 UTC. Time now 2018-Apr-24 16:42 UTC.
Position N 45°53' W 001°53'.

Length 14 m.

Type: Fishing. MMSI: 227582000.

Date/timePositionNaut miles runAvg speedWind from/ knotsBaromVisibWave heightAir tempDewpointWater temp
2018-Apr-24 07:03N 45°53' W 001°53'110.0
2018-Apr-24 06:57N 45°53' W 001°54'8 3.3
2018-Apr-24 04:37N 45°54' W 002°06'6 0.2
2018-Apr-23 04:20N 45°56' W 001°58'1 2.7
2018-Apr-23 04:00N 45°56' W 001°59'2 3.5
2018-Apr-23 03:30N 45°57' W 002°01'1 1.6
2018-Apr-23 02:58N 45°57' W 002°01'2 3.4
2018-Apr-23 02:28N 45°56' W 001°59'1 1.2
2018-Apr-23 01:31N 45°56' W 001°57'1 3.6
2018-Apr-23 01:20N 45°56' W 001°58'1 3.6
2018-Apr-23 00:59N 45°57' W 001°60'2 3.2
2018-Apr-23 00:30N 45°57' W 002°02'2 0.7
2018-Apr-22 21:51N 45°56' W 002°00'1 3.7
2018-Apr-22 21:28N 45°55' W 001°58'1 1.1
2018-Apr-22 20:51N 45°56' W 001°58'1 3.7
2018-Apr-22 20:29N 45°57' W 001°60'1 1.5
2018-Apr-22 19:47N 45°57' W 002°01'1 3.2
2018-Apr-22 19:30N 45°56' W 002°00'3 1.3
2018-Apr-22 17:33N 45°54' W 002°01'3 2.9
2018-Apr-22 16:30N 45°51' W 002°00'3 3.4
2018-Apr-22 15:41N 45°49' W 001°58'1 3.3
2018-Apr-22 15:30N 45°48' W 001°57'2 2.9
2018-Apr-22 14:49N 45°49' W 001°54'1 2.5
2018-Apr-22 14:29N 45°50' W 001°55'2 3.5
2018-Apr-22 14:00N 45°50' W 001°57'2 3.2
2018-Apr-22 13:30N 45°50' W 001°59'2 3.1
2018-Apr-22 13:00N 45°50' W 001°57'1 1.7
2018-Apr-22 12:31N 45°50' W 001°56'1 2.5
2018-Apr-22 12:01N 45°49' W 001°57'2 3.6
2018-Apr-22 11:30N 45°49' W 001°55'2 3.6
2018-Apr-22 11:00N 45°49' W 001°53'2 3.7
2018-Apr-22 10:30N 45°49' W 001°50'2 3.7
2018-Apr-22 10:00N 45°50' W 001°48'2 2.5
2018-Apr-22 09:20N 45°48' W 001°48'1 3.7
2018-Apr-22 08:57N 45°47' W 001°46'2 4.6
2018-Apr-22 08:30N 45°47' W 001°43'7 9.2
2018-Apr-22 07:47N 45°49' W 001°34'3 9.3
2018-Apr-22 07:29N 45°51' W 001°31'9 0.3
2018-Apr-21 04:54N 45°55' W 001°20'  
2018-Apr-18 07:07N 45°54' W 001°20'1 3.9
2018-Apr-18 06:52N 45°53' W 001°21'2 4.5
2018-Apr-18 06:30N 45°52' W 001°22'0 0.2
2018-Apr-18 05:55N 45°52' W 001°23'2 4.8
2018-Apr-18 05:30N 45°53' W 001°20'2 3.3
2018-Apr-18 04:59N 45°55' W 001°20'0 0.1
2018-Apr-18 03:28N 45°55' W 001°20'0 0.0
2018-Apr-18 02:58N 45°55' W 001°20'1 2.7
2018-Apr-18 02:30N 45°54' W 001°20'5 9.3
2018-Apr-18 02:00N 45°51' W 001°26'510.0
2018-Apr-18 01:30N 45°49' W 001°32'47 2.2
2018-Apr-17 04:10N 45°33' W 002°35'1 3.6
2018-Apr-17 03:50N 45°34' W 002°36'2 3.4
2018-Apr-17 03:21N 45°35' W 002°39'2 2.5
2018-Apr-17 02:32N 45°33' W 002°36'2 2.7
2018-Apr-17 01:46N 45°32' W 002°34'8 3.4
2018-Apr-16 23:18N 45°37' W 002°43'22 0.5
2018-Apr-14 21:50N 45°57' W 002°29'1 3.5
2018-Apr-14 21:30N 45°56' W 002°27'  

Dump ship's entire track history